Accueil
Images satellite Prévisions 15 joursClimatMétéo marine Cyclones Foudre AéroportsFAQ Actualités A propos
Météo : Europe Afrique Amérique du Nord Amérique du Sud Asie Australie-Océanie Autres
Langues Contact

Carcassonne, France

Salvaza

latitude: 43-13N, longitude: 002-19E, altitude: 130 m


METAR: LFMK 202130Z AUTO 00000KT 9999 NSC 21/17 Q1017
short-TAF: périmé (9013 heures)
long-TAF: LFMK 202141Z 2021/2118 VRB03KT 9999 NSC PROB30 TEMPO 2021/2024 09015KT SHRA BKN030CB BECMG 2108/2110 28010KT

Heure: 00:01 (22:01 UTC)

Observation

Le bulletin a été fait il y a 31 minutes, à 21:30 UTC  
Vent calme
Température 21°C
Humidité 78%
Pression 1017 hPa
Visibilité 10 km ou plus

Changer d'unités

Prévision

Le bulletin a été fait il y a 14 minutes, à 21:47 UTC  
Prévision valable du 20 à 21 UTC au 21 à 18 UTC
Vent 03 kt de direction variable
Visibilité 10 km ou plus
Probabilité 30% :
Temporairement
du 20 à 21 UTC au 20 à 24 UTC
Vent 15 kt de est
Nuages fragmentés à une hauteur de 3000 ft , Cumulonimbus.
averses de pluie
Evoluant progressivement
du 21 à 08 UTC au 21 à 10 UTC
Vent 10 kt de ouest
Les informations qui figurent sur ce site font l'objet d'une clause de non-responsabilité
Météo : Europe Afrique Amérique du Nord Amérique du Sud Asie Australie-Océanie Autres
Images satellite Prévisions 15 joursClimatMétéo marine Cyclones Foudre AéroportsFAQ Langues Contact Actualités A propos